createdAt,value
2018-03-25T00:01:23.167Z,1001.84
2018-03-25T00:02:23.181Z,1001.85
2018-03-25T00:03:23.201Z,1001.85
2018-03-25T00:04:23.209Z,1001.84
2018-03-25T00:05:23.223Z,1001.85
2018-03-25T00:06:23.236Z,1001.88
2018-03-25T00:07:23.251Z,1001.88
2018-03-25T00:08:23.265Z,1001.88
2018-03-25T00:09:23.278Z,1001.84
2018-03-25T00:10:23.292Z,1001.88
2018-03-25T00:11:23.306Z,1001.9
2018-03-25T00:12:23.320Z,1001.89
2018-03-25T00:13:23.376Z,1001.87
2018-03-25T00:14:23.346Z,1001.9
2018-03-25T00:15:23.367Z,1001.92
2018-03-25T00:16:23.380Z,1001.9
2018-03-25T00:17:23.388Z,1001.92
2018-03-25T00:18:23.402Z,1001.91
2018-03-25T00:19:23.417Z,1001.86
2018-03-25T00:20:23.430Z,1001.9
2018-03-25T00:21:23.445Z,1001.85
2018-03-25T00:22:23.458Z,1001.87
2018-03-25T00:23:23.474Z,1001.87
2018-03-25T00:24:23.490Z,1001.88
2018-03-25T00:25:23.499Z,1001.86
2018-03-25T00:26:23.513Z,1001.87
2018-03-25T00:27:23.527Z,1001.9
2018-03-25T00:28:23.540Z,1001.92
2018-03-25T00:29:23.553Z,1001.92
2018-03-25T00:30:23.568Z,1001.93
2018-03-25T00:31:23.581Z,1001.89
2018-03-25T00:33:23.613Z,1001.89
2018-03-25T00:34:23.623Z,1001.88
2018-03-25T00:35:23.636Z,1001.9
2018-03-25T00:36:23.651Z,1001.89
2018-03-25T00:37:23.664Z,1001.9
2018-03-25T00:38:23.679Z,1001.87
2018-03-25T00:39:23.692Z,1001.85
2018-03-25T00:40:23.705Z,1001.85
2018-03-25T00:41:23.720Z,1001.93
2018-03-25T00:42:23.794Z,1001.91
2018-03-25T00:43:23.747Z,1001.85
2018-03-25T00:44:23.760Z,1001.9
2018-03-25T00:45:23.774Z,1001.86
2018-03-25T00:46:23.788Z,1001.9
2018-03-25T00:47:23.802Z,1002.02
2018-03-25T00:49:23.829Z,1001.99
2018-03-25T00:50:23.842Z,1001.98
2018-03-25T00:51:23.857Z,1002.03
2018-03-25T00:52:23.871Z,1002.06
2018-03-25T00:53:23.883Z,1002.03
2018-03-25T00:54:23.896Z,1002.05
2018-03-25T00:55:23.912Z,1001.99
2018-03-25T00:56:23.925Z,1002.04
2018-03-25T00:57:23.938Z,1002.08
2018-03-25T00:58:23.955Z,1001.98
2018-03-25T00:59:23.966Z,1001.99
2018-03-25T01:00:23.980Z,1002.07
2018-03-25T01:01:23.993Z,1002.04
2018-03-25T01:02:24.005Z,1002.02
2018-03-25T01:03:24.021Z,1002.02
2018-03-25T01:05:24.048Z,1001.99
2018-03-25T01:06:24.062Z,1001.99
2018-03-25T01:07:24.074Z,1001.99
2018-03-25T01:08:24.088Z,1002.02
2018-03-25T01:09:24.102Z,1001.99
2018-03-25T01:10:24.115Z,1001.98
2018-03-25T01:11:24.130Z,1001.99
2018-03-25T01:12:24.145Z,1001.93
2018-03-25T01:13:24.156Z,1001.92
2018-03-25T01:14:24.169Z,1001.94
2018-03-25T01:15:24.186Z,1001.91
2018-03-25T01:16:24.196Z,1001.91
2018-03-25T01:17:24.210Z,1001.94
2018-03-25T01:18:24.224Z,1001.98
2018-03-25T01:19:24.241Z,1001.97
2018-03-25T01:21:24.264Z,1001.91
2018-03-25T01:22:24.278Z,1001.94
2018-03-25T01:23:24.292Z,1001.96
2018-03-25T01:24:24.304Z,1001.95
2018-03-25T01:25:24.319Z,1001.93
2018-03-25T01:26:24.332Z,1001.9
2018-03-25T01:27:24.345Z,1001.93
2018-03-25T01:28:24.359Z,1001.93
2018-03-25T01:29:24.372Z,1001.95
2018-03-25T01:30:24.385Z,1002
2018-03-25T01:31:24.398Z,1001.97
2018-03-25T01:32:24.417Z,1001.99
2018-03-25T01:33:24.427Z,1001.96
2018-03-25T01:34:24.439Z,1001.99
2018-03-25T01:36:24.466Z,1001.92
2018-03-25T01:37:24.480Z,1001.92
2018-03-25T01:38:24.493Z,1001.93
2018-03-25T01:39:24.507Z,1001.92
2018-03-25T01:40:24.521Z,1001.87
2018-03-25T01:41:24.532Z,1001.89
2018-03-25T01:42:24.547Z,1001.86
2018-03-25T01:43:24.560Z,1001.88
2018-03-25T01:44:24.573Z,1001.85
2018-03-25T01:45:24.586Z,1001.83
2018-03-25T01:46:24.600Z,1001.8
2018-03-25T01:47:24.614Z,1001.87
2018-03-25T01:48:24.627Z,1001.81
2018-03-25T01:49:24.643Z,1001.83
2018-03-25T01:50:24.653Z,1001.86
2018-03-25T01:51:24.668Z,1001.81
2018-03-25T01:52:24.680Z,1001.82
2018-03-25T01:53:24.692Z,1001.79
2018-03-25T01:54:24.707Z,1001.82
2018-03-25T01:55:24.719Z,1001.85
2018-03-25T01:56:24.732Z,1001.84
2018-03-25T01:57:24.746Z,1001.82
2018-03-25T01:58:24.759Z,1001.81
2018-03-25T01:59:24.772Z,1001.81
2018-03-25T02:00:24.786Z,1001.81
2018-03-25T02:01:24.799Z,1001.76
2018-03-25T02:02:24.816Z,1001.79
2018-03-25T02:03:24.825Z,1001.77
2018-03-25T02:04:24.840Z,1001.78
2018-03-25T02:05:24.852Z,1001.78
2018-03-25T02:06:24.862Z,1001.74
2018-03-25T02:08:24.890Z,1001.78
2018-03-25T02:09:24.906Z,1001.81
2018-03-25T02:10:24.917Z,1001.78
2018-03-25T02:11:24.930Z,1001.72
2018-03-25T02:12:24.943Z,1001.7
2018-03-25T02:13:24.955Z,1001.65
2018-03-25T02:14:24.969Z,1001.69
2018-03-25T02:15:24.983Z,1001.67
2018-03-25T02:16:24.996Z,1001.68
2018-03-25T02:17:25.008Z,1001.65
2018-03-25T02:18:25.028Z,1001.7
2018-03-25T02:19:25.035Z,1001.69
2018-03-25T02:20:25.049Z,1001.67
2018-03-25T02:21:25.061Z,1001.68
2018-03-25T02:22:25.074Z,1001.69
2018-03-25T02:24:25.102Z,1001.69
2018-03-25T02:25:25.115Z,1001.69
2018-03-25T02:26:25.126Z,1001.72
2018-03-25T02:27:25.140Z,1001.7
2018-03-25T02:28:25.153Z,1001.72
2018-03-25T02:29:25.166Z,1001.7
2018-03-25T02:30:25.179Z,1001.75
2018-03-25T02:31:25.294Z,1001.68
2018-03-25T02:32:25.206Z,1001.72
2018-03-25T02:33:25.217Z,1001.74
2018-03-25T02:34:25.233Z,1001.72
2018-03-25T02:35:25.246Z,1001.74
2018-03-25T02:36:25.258Z,1001.75
2018-03-25T02:37:25.272Z,1001.75
2018-03-25T02:38:25.285Z,1001.79
2018-03-25T02:40:25.310Z,1001.81
2018-03-25T02:41:25.324Z,1001.83
2018-03-25T02:42:25.337Z,1001.79
2018-03-25T02:43:25.350Z,1001.78
2018-03-25T02:44:25.389Z,1001.8
2018-03-25T02:45:25.377Z,1001.76
2018-03-25T02:46:25.389Z,1001.77
2018-03-25T02:47:25.401Z,1001.74
2018-03-25T02:48:25.416Z,1001.76
2018-03-25T02:49:25.428Z,1001.78
2018-03-25T02:50:25.440Z,1001.81
2018-03-25T02:51:25.454Z,1001.79
2018-03-25T02:52:25.472Z,1001.8
2018-03-25T02:53:25.481Z,1001.8
2018-03-25T02:54:25.505Z,1001.84
2018-03-25T02:56:25.519Z,1001.86
2018-03-25T02:57:25.534Z,1001.89
2018-03-25T02:58:25.545Z,1001.89
2018-03-25T02:59:25.557Z,1001.88
2018-03-25T03:00:25.572Z,1001.86
2018-03-25T03:01:25.592Z,1001.86
2018-03-25T03:02:25.598Z,1001.88
2018-03-25T03:03:25.610Z,1001.93
2018-03-25T03:04:25.624Z,1001.92
2018-03-25T03:05:25.634Z,1001.93
2018-03-25T03:06:25.656Z,1001.93
2018-03-25T03:07:25.663Z,1001.9
2018-03-25T03:08:25.676Z,1001.91
2018-03-25T03:09:25.733Z,1001.9
2018-03-25T03:11:25.715Z,1001.94
2018-03-25T03:12:25.728Z,1001.91
2018-03-25T03:13:25.742Z,1001.95
2018-03-25T03:14:25.755Z,1001.95
2018-03-25T03:15:25.768Z,1001.95
2018-03-25T03:16:25.779Z,1001.93
2018-03-25T03:17:25.793Z,1001.96
2018-03-25T03:18:25.806Z,1001.95
2018-03-25T03:19:25.819Z,1001.98
2018-03-25T03:20:25.833Z,1001.95
2018-03-25T03:21:25.845Z,1001.98
2018-03-25T03:22:25.857Z,1001.94
2018-03-25T03:23:25.870Z,1001.96
2018-03-25T03:24:25.883Z,1001.94
2018-03-25T03:25:25.898Z,1001.94
2018-03-25T03:26:25.909Z,1001.94
2018-03-25T03:27:25.922Z,1001.95
2018-03-25T03:28:25.934Z,1001.97
2018-03-25T03:29:26.028Z,1001.95
2018-03-25T03:30:25.961Z,1001.97
2018-03-25T03:31:25.973Z,1001.97
2018-03-25T03:32:25.986Z,1001.97
2018-03-25T03:33:26.004Z,1001.96
2018-03-25T03:34:26.013Z,1001.96
2018-03-25T03:35:26.024Z,1001.97
2018-03-25T03:36:26.039Z,1001.97
2018-03-25T03:37:26.051Z,1001.96
2018-03-25T03:38:26.066Z,1001.97
2018-03-25T03:39:26.078Z,1002.03
2018-03-25T03:40:26.088Z,1002.12
2018-03-25T03:41:26.100Z,1002.07
2018-03-25T03:43:26.126Z,1002.15
2018-03-25T03:44:26.140Z,1002.11
2018-03-25T03:45:26.152Z,1002.14
2018-03-25T03:46:26.165Z,1002.11
2018-03-25T03:47:26.178Z,1002.13
2018-03-25T03:48:26.191Z,1002.17
2018-03-25T03:49:26.203Z,1002.18
2018-03-25T03:50:26.217Z,1002.18
2018-03-25T03:51:26.228Z,1002.19
2018-03-25T03:52:26.242Z,1002.18
2018-03-25T03:53:26.255Z,1002.17
2018-03-25T03:54:26.268Z,1002.17
2018-03-25T03:55:26.281Z,1002.16
2018-03-25T03:56:26.293Z,1002.17
2018-03-25T03:57:26.306Z,1002.17
2018-03-25T03:59:26.334Z,1002.19
2018-03-25T04:00:26.344Z,1002.15
2018-03-25T04:01:26.357Z,1002.17
2018-03-25T04:02:26.369Z,1002.17
2018-03-25T04:03:26.382Z,1002.15
2018-03-25T04:04:26.394Z,1002.13
2018-03-25T04:05:26.408Z,1002.14
2018-03-25T04:06:26.421Z,1002.12
2018-03-25T04:07:26.433Z,1002.14
2018-03-25T04:08:26.445Z,1002.15
2018-03-25T04:09:26.458Z,1002.15
2018-03-25T04:10:26.472Z,1002.17
2018-03-25T04:11:26.484Z,1002.16
2018-03-25T04:12:26.497Z,1002.16
2018-03-25T04:13:26.510Z,1002.14
2018-03-25T04:15:26.535Z,1002.14
2018-03-25T04:16:26.548Z,1002.14
2018-03-25T04:17:26.561Z,1002.16
2018-03-25T04:18:26.574Z,1002.18
2018-03-25T04:19:26.586Z,1002.16
2018-03-25T04:20:26.604Z,1002.17
2018-03-25T04:21:26.612Z,1002.2
2018-03-25T04:22:26.624Z,1002.22
2018-03-25T04:23:26.637Z,1002.19
2018-03-25T04:24:26.650Z,1002.16
2018-03-25T04:25:26.662Z,1002.19
2018-03-25T04:26:26.675Z,1002.14
2018-03-25T04:27:26.687Z,1002.18
2018-03-25T04:28:26.701Z,1002.19
2018-03-25T04:29:26.712Z,1002.23
2018-03-25T04:31:26.738Z,1002.24
2018-03-25T04:32:26.751Z,1002.21
2018-03-25T04:33:26.767Z,1002.23
2018-03-25T04:34:26.776Z,1002.2
2018-03-25T04:35:26.789Z,1002.2
2018-03-25T04:36:26.801Z,1002.26
2018-03-25T04:37:26.814Z,1002.22
2018-03-25T04:38:26.827Z,1002.25
2018-03-25T04:39:26.840Z,1002.21
2018-03-25T04:40:26.851Z,1002.24
2018-03-25T04:41:26.864Z,1002.23
2018-03-25T04:42:26.878Z,1002.23
2018-03-25T04:43:26.891Z,1002.2
2018-03-25T04:44:26.903Z,1002.24
2018-03-25T04:46:26.930Z,1002.17
2018-03-25T04:47:26.940Z,1002.21
2018-03-25T04:48:26.954Z,1002.18
2018-03-25T04:49:26.967Z,1002.2
2018-03-25T04:50:26.980Z,1002.18
2018-03-25T04:51:26.992Z,1002.23
2018-03-25T04:52:27.005Z,1002.2
2018-03-25T04:53:27.018Z,1002.21
2018-03-25T04:54:27.029Z,1002.21
2018-03-25T04:55:27.043Z,1002.2
2018-03-25T04:56:27.054Z,1002.17
2018-03-25T04:57:27.068Z,1002.2
2018-03-25T04:58:27.080Z,1002.16
2018-03-25T04:59:27.093Z,1002.19
2018-03-25T05:00:27.106Z,1002.23
2018-03-25T05:01:27.119Z,1002.21
2018-03-25T05:02:27.131Z,1002.23
2018-03-25T05:03:27.144Z,1002.24
2018-03-25T05:04:27.160Z,1002.29
2018-03-25T05:05:27.169Z,1002.22
2018-03-25T05:06:27.182Z,1002.27
2018-03-25T05:07:27.195Z,1002.29
2018-03-25T05:08:27.208Z,1002.28
2018-03-25T05:09:27.220Z,1002.26
2018-03-25T05:10:27.232Z,1002.29
2018-03-25T05:11:27.246Z,1002.32
2018-03-25T05:12:27.260Z,1002.33
2018-03-25T05:13:27.273Z,1002.34
2018-03-25T05:14:27.283Z,1002.33
2018-03-25T05:15:27.295Z,1002.31
2018-03-25T05:16:27.309Z,1002.3
2018-03-25T05:18:27.334Z,1002.29
2018-03-25T05:19:27.348Z,1002.29
2018-03-25T05:20:27.359Z,1002.32
2018-03-25T05:21:27.373Z,1002.24
2018-03-25T05:22:27.386Z,1002.24
2018-03-25T05:23:27.398Z,1002.27
2018-03-25T05:24:27.412Z,1002.29
2018-03-25T05:25:27.423Z,1002.27
2018-03-25T05:26:27.438Z,1002.29
2018-03-25T05:27:27.450Z,1002.28
2018-03-25T05:28:27.463Z,1002.29
2018-03-25T05:29:27.478Z,1002.3
2018-03-25T05:30:27.490Z,1002.3
2018-03-25T05:31:27.503Z,1002.3
2018-03-25T05:32:27.524Z,1002.29
2018-03-25T05:34:27.543Z,1002.33
2018-03-25T05:35:27.556Z,1002.33
2018-03-25T05:36:27.569Z,1002.35
2018-03-25T05:37:27.583Z,1002.34
2018-03-25T05:38:27.594Z,1002.34
2018-03-25T05:39:27.613Z,1002.38
2018-03-25T05:40:27.622Z,1002.37
2018-03-25T05:41:27.636Z,1002.36
2018-03-25T05:42:27.650Z,1002.36
2018-03-25T05:43:27.668Z,1002.36
2018-03-25T05:44:27.678Z,1002.42
2018-03-25T05:45:27.691Z,1002.4
2018-03-25T05:46:27.704Z,1002.43
2018-03-25T05:47:27.719Z,1002.45
2018-03-25T05:48:27.741Z,1002.48
2018-03-25T05:50:27.759Z,1002.51
2018-03-25T05:51:27.775Z,1002.59
2018-03-25T05:52:27.789Z,1002.55
2018-03-25T05:53:27.804Z,1002.59
2018-03-25T05:54:27.819Z,1002.58
2018-03-25T05:55:27.833Z,1002.6
2018-03-25T05:56:27.848Z,1002.6
2018-03-25T05:57:27.863Z,1002.52
2018-03-25T05:58:27.876Z,1002.57
2018-03-25T05:59:27.893Z,1002.58
2018-03-25T06:00:27.907Z,1002.58
2018-03-25T06:01:27.927Z,1002.5
2018-03-25T06:02:27.936Z,1002.51
2018-03-25T06:03:27.955Z,1002.51
2018-03-25T06:04:27.969Z,1002.44
2018-03-25T06:06:27.998Z,1002.38
2018-03-25T06:07:28.016Z,1002.41
2018-03-25T06:08:28.031Z,1002.39
2018-03-25T06:09:28.048Z,1002.39
2018-03-25T06:10:28.064Z,1002.38
2018-03-25T06:11:28.082Z,1002.42
2018-03-25T06:12:28.097Z,1002.37
2018-03-25T06:13:28.115Z,1002.37
2018-03-25T06:14:28.132Z,1002.35
2018-03-25T06:15:28.148Z,1002.36
2018-03-25T06:16:28.166Z,1002.3
2018-03-25T06:17:28.185Z,1002.36
2018-03-25T06:18:28.202Z,1002.39
2018-03-25T06:19:28.221Z,1002.34
2018-03-25T06:21:28.258Z,1002.39
2018-03-25T06:22:28.277Z,1002.42
2018-03-25T06:23:28.352Z,1002.48
2018-03-25T06:24:28.315Z,1002.51
2018-03-25T06:25:28.334Z,1002.56
2018-03-25T06:26:28.355Z,1002.59
2018-03-25T06:27:28.375Z,1002.6
2018-03-25T06:28:28.393Z,1002.61
2018-03-25T06:29:28.412Z,1002.68
2018-03-25T06:30:28.434Z,1002.63
2018-03-25T06:31:28.454Z,1002.72
2018-03-25T06:32:28.474Z,1002.75
2018-03-25T06:33:28.496Z,1002.75
2018-03-25T06:34:28.518Z,1002.82
2018-03-25T06:35:28.537Z,1002.85
2018-03-25T06:36:28.559Z,1002.85
2018-03-25T06:37:28.579Z,1002.9
2018-03-25T06:38:28.600Z,1002.93
2018-03-25T06:39:28.626Z,1002.96
2018-03-25T06:40:28.642Z,1002.98
2018-03-25T06:41:28.666Z,1003.04
2018-03-25T06:42:28.687Z,1003.08
2018-03-25T06:43:28.711Z,1003.16
2018-03-25T06:44:28.732Z,1003.11
2018-03-25T06:45:28.755Z,1003.19
2018-03-25T06:46:28.778Z,1003.24
2018-03-25T06:47:28.801Z,1003.28
2018-03-25T06:48:28.826Z,1003.32
2018-03-25T06:49:28.846Z,1003.31
2018-03-25T06:50:28.870Z,1003.36
2018-03-25T06:51:28.892Z,1003.41
2018-03-25T06:53:28.938Z,1003.45
2018-03-25T06:54:28.962Z,1003.44
2018-03-25T06:55:28.985Z,1003.5
2018-03-25T06:56:29.007Z,1003.45
2018-03-25T06:57:29.032Z,1003.51
2018-03-25T06:58:29.056Z,1003.55
2018-03-25T06:59:29.080Z,1003.54
2018-03-25T07:00:29.103Z,1003.59
2018-03-25T07:01:29.127Z,1003.56
2018-03-25T07:02:29.150Z,1003.58
2018-03-25T07:03:29.177Z,1003.55
2018-03-25T07:04:29.198Z,1003.6
2018-03-25T07:05:29.222Z,1003.6
2018-03-25T07:06:29.246Z,1003.64
2018-03-25T07:07:29.270Z,1003.64
2018-03-25T07:09:29.318Z,1003.66
2018-03-25T07:10:29.342Z,1003.66
2018-03-25T07:11:29.366Z,1003.61
2018-03-25T07:12:29.391Z,1003.68
2018-03-25T07:13:29.414Z,1003.66
2018-03-25T07:14:29.452Z,1003.68
2018-03-25T07:15:29.463Z,1003.7
2018-03-25T07:16:29.488Z,1003.69
2018-03-25T07:17:29.512Z,1003.73
2018-03-25T07:18:29.535Z,1003.73
2018-03-25T07:19:29.584Z,1003.73
2018-03-25T07:20:29.585Z,1003.74
2018-03-25T07:21:29.611Z,1003.68
2018-03-25T07:22:29.693Z,1003.7
2018-03-25T07:23:29.659Z,1003.76
2018-03-25T07:25:29.707Z,1003.73
2018-03-25T07:26:29.760Z,1003.74
2018-03-25T07:27:29.758Z,1003.78
2018-03-25T07:28:29.782Z,1003.77
2018-03-25T07:29:29.807Z,1003.78
2018-03-25T07:30:29.831Z,1003.75
2018-03-25T07:31:29.856Z,1003.75
2018-03-25T07:32:29.881Z,1003.77
2018-03-25T07:33:29.908Z,1003.75
2018-03-25T07:34:29.931Z,1003.73
2018-03-25T07:35:29.954Z,1003.71
2018-03-25T07:36:29.985Z,1003.73
2018-03-25T07:37:30.005Z,1003.72
2018-03-25T07:38:30.035Z,1003.73
2018-03-25T07:39:30.054Z,1003.75
2018-03-25T07:41:30.105Z,1003.77
2018-03-25T07:42:30.130Z,1003.77
2018-03-25T07:43:30.167Z,1003.84
2018-03-25T07:44:30.178Z,1003.8
2018-03-25T07:45:30.205Z,1003.8
2018-03-25T07:46:30.229Z,1003.78
2018-03-25T07:47:30.254Z,1003.78
2018-03-25T07:48:30.280Z,1003.75
2018-03-25T07:49:30.305Z,1003.73
2018-03-25T07:50:30.328Z,1003.76
2018-03-25T07:51:30.354Z,1003.73
2018-03-25T07:52:30.379Z,1003.73
2018-03-25T07:53:30.404Z,1003.76
2018-03-25T07:54:30.428Z,1003.75
2018-03-25T07:56:30.480Z,1003.66
2018-03-25T07:57:30.503Z,1003.69
2018-03-25T07:58:30.529Z,1003.64
2018-03-25T07:59:30.562Z,1003.6
2018-03-25T08:00:30.579Z,1003.61
2018-03-25T08:01:30.604Z,1003.61
2018-03-25T08:02:30.629Z,1003.58
2018-03-25T08:03:30.654Z,1003.62
2018-03-25T08:04:30.677Z,1003.63
2018-03-25T08:05:30.703Z,1003.58
2018-03-25T08:06:30.728Z,1003.66
2018-03-25T08:07:30.753Z,1003.64
2018-03-25T08:08:30.777Z,1003.62
2018-03-25T08:09:30.803Z,1003.64
2018-03-25T08:10:30.827Z,1003.68
2018-03-25T08:11:30.853Z,1003.64
2018-03-25T08:12:30.876Z,1003.61
2018-03-25T08:13:30.904Z,1003.65
2018-03-25T08:14:30.926Z,1003.65
2018-03-25T08:15:30.951Z,1003.62
2018-03-25T08:16:30.976Z,1003.64
2018-03-25T08:17:31.001Z,1003.65
2018-03-25T08:18:31.026Z,1003.66
2018-03-25T08:19:31.059Z,1003.68
2018-03-25T08:20:31.076Z,1003.71
2018-03-25T08:21:31.144Z,1003.7
2018-03-25T08:22:31.132Z,1003.74
2018-03-25T08:23:31.151Z,1003.76
2018-03-25T08:24:31.175Z,1003.76
2018-03-25T08:25:31.202Z,1003.77
2018-03-25T08:26:31.229Z,1003.77
2018-03-25T08:28:31.279Z,1003.77
2018-03-25T08:29:31.301Z,1003.78
2018-03-25T08:30:31.326Z,1003.83
2018-03-25T08:31:31.352Z,1003.83
2018-03-25T08:32:31.376Z,1003.78
2018-03-25T08:33:31.402Z,1003.77
2018-03-25T08:34:31.429Z,1003.78
2018-03-25T08:35:31.451Z,1003.79
2018-03-25T08:36:31.477Z,1003.76
2018-03-25T08:37:31.499Z,1003.78
2018-03-25T08:38:31.526Z,1003.79
2018-03-25T08:39:31.551Z,1003.77
2018-03-25T08:40:31.610Z,1003.77
2018-03-25T08:41:31.600Z,1003.79
2018-03-25T08:42:31.625Z,1003.79
2018-03-25T08:44:31.675Z,1003.75
2018-03-25T08:45:31.701Z,1003.79
2018-03-25T08:46:31.729Z,1003.76
2018-03-25T08:47:31.750Z,1003.77
2018-03-25T08:48:31.774Z,1003.8
2018-03-25T08:49:31.798Z,1003.77
2018-03-25T08:50:31.824Z,1003.75
2018-03-25T08:51:31.849Z,1003.73
2018-03-25T08:52:31.873Z,1003.77
2018-03-25T08:53:31.898Z,1003.74
2018-03-25T08:54:31.924Z,1003.76
2018-03-25T08:55:31.949Z,1003.75
2018-03-25T08:56:31.974Z,1003.74
2018-03-25T08:57:31.998Z,1003.75
2018-03-25T08:58:32.025Z,1003.78
2018-03-25T09:00:32.072Z,1003.71
2018-03-25T09:01:32.098Z,1003.73
2018-03-25T09:02:32.124Z,1003.74
2018-03-25T09:03:32.148Z,1003.71
2018-03-25T09:04:32.173Z,1003.7
2018-03-25T09:05:32.198Z,1003.72
2018-03-25T09:06:32.224Z,1003.71
2018-03-25T09:07:32.248Z,1003.74
2018-03-25T09:08:32.273Z,1003.72
2018-03-25T09:09:32.298Z,1003.71
2018-03-25T09:10:32.323Z,1003.7
2018-03-25T09:11:32.348Z,1003.69
2018-03-25T09:12:32.373Z,1003.69
2018-03-25T09:13:32.398Z,1003.64
2018-03-25T09:14:32.423Z,1003.7
2018-03-25T09:16:32.473Z,1003.66
2018-03-25T09:17:32.498Z,1003.63
2018-03-25T09:18:32.522Z,1003.64
2018-03-25T09:19:32.550Z,1003.66
2018-03-25T09:20:32.572Z,1003.65
2018-03-25T09:21:32.596Z,1003.66
2018-03-25T09:22:32.622Z,1003.71
2018-03-25T09:23:32.645Z,1003.67
2018-03-25T09:24:32.671Z,1003.7
2018-03-25T09:25:32.700Z,1003.69
2018-03-25T09:26:32.820Z,1003.69
2018-03-25T09:27:32.744Z,1003.66
2018-03-25T09:28:32.769Z,1003.71
2018-03-25T09:29:32.795Z,1003.7
2018-03-25T09:31:32.845Z,1003.65
2018-03-25T09:32:32.869Z,1003.66
2018-03-25T09:33:32.893Z,1003.67
2018-03-25T09:34:32.930Z,1003.68
2018-03-25T09:35:32.944Z,1003.66
2018-03-25T09:36:32.968Z,1003.66
2018-03-25T09:37:32.993Z,1003.61
2018-03-25T09:38:33.019Z,1003.66
2018-03-25T09:39:33.042Z,1003.66
2018-03-25T09:40:33.067Z,1003.65
2018-03-25T09:41:33.091Z,1003.68
2018-03-25T09:42:33.117Z,1003.63
2018-03-25T09:43:33.145Z,1003.64
2018-03-25T09:44:33.167Z,1003.64
2018-03-25T09:45:33.192Z,1003.6
2018-03-25T09:46:33.217Z,1003.63
2018-03-25T09:47:33.242Z,1003.64
2018-03-25T09:48:33.266Z,1003.62
2018-03-25T09:49:33.291Z,1003.63
2018-03-25T09:50:33.316Z,1003.65
2018-03-25T09:51:33.340Z,1003.62
2018-03-25T09:52:33.366Z,1003.64
2018-03-25T09:53:33.391Z,1003.62
2018-03-25T09:54:33.415Z,1003.62
2018-03-25T09:55:33.447Z,1003.69
2018-03-25T09:56:33.465Z,1003.63
2018-03-25T09:57:33.491Z,1003.66
2018-03-25T09:58:33.584Z,1003.67
2018-03-25T09:59:33.540Z,1003.7
2018-03-25T10:00:33.564Z,1003.65
2018-03-25T10:01:33.589Z,1003.71
2018-03-25T10:03:33.640Z,1003.68
2018-03-25T10:04:33.664Z,1003.67
2018-03-25T10:05:33.687Z,1003.66
2018-03-25T10:06:33.713Z,1003.65
2018-03-25T10:07:33.741Z,1003.69
2018-03-25T10:08:33.761Z,1003.71
2018-03-25T10:09:33.786Z,1003.66
2018-03-25T10:10:33.814Z,1003.7
2018-03-25T10:11:33.838Z,1003.72
2018-03-25T10:12:33.860Z,1003.67
2018-03-25T10:13:33.885Z,1003.68
2018-03-25T10:14:33.911Z,1003.71
2018-03-25T10:15:33.936Z,1003.73
2018-03-25T10:16:33.959Z,1003.71
2018-03-25T10:17:33.984Z,1003.72
2018-03-25T10:19:34.036Z,1003.69
2018-03-25T10:20:34.058Z,1003.75
2018-03-25T10:21:34.083Z,1003.66
2018-03-25T10:22:34.109Z,1003.71
2018-03-25T10:23:34.136Z,1003.68
2018-03-25T10:24:34.158Z,1003.68
2018-03-25T10:25:34.182Z,1003.67
2018-03-25T10:26:34.207Z,1003.67
2018-03-25T10:27:34.231Z,1003.67
2018-03-25T10:28:34.254Z,1003.69
2018-03-25T10:29:34.280Z,1003.65
2018-03-25T10:30:34.305Z,1003.67
2018-03-25T10:31:34.329Z,1003.63
2018-03-25T10:32:34.355Z,1003.59
2018-03-25T10:33:34.378Z,1003.59
2018-03-25T10:35:34.426Z,1003.62
2018-03-25T10:36:34.551Z,1003.62
2018-03-25T10:37:34.476Z,1003.64
2018-03-25T10:38:34.499Z,1003.63
2018-03-25T10:39:34.524Z,1003.65
2018-03-25T10:40:34.549Z,1003.64
2018-03-25T10:41:34.571Z,1003.65
2018-03-25T10:42:34.595Z,1003.63
2018-03-25T10:43:34.665Z,1003.62
2018-03-25T10:44:34.644Z,1003.64
2018-03-25T10:45:34.666Z,1003.62
2018-03-25T10:46:34.694Z,1003.69
2018-03-25T10:47:34.715Z,1003.65
2018-03-25T10:48:34.739Z,1003.66
2018-03-25T10:49:34.789Z,1003.66
2018-03-25T10:51:34.810Z,1003.65
2018-03-25T10:52:34.832Z,1003.62
2018-03-25T10:53:34.856Z,1003.58
2018-03-25T10:54:34.880Z,1003.6
2018-03-25T10:55:34.956Z,1003.6
2018-03-25T10:56:34.927Z,1003.62
2018-03-25T10:57:34.950Z,1003.63
2018-03-25T10:58:34.974Z,1003.63
2018-03-25T10:59:34.997Z,1003.64
2018-03-25T11:00:35.020Z,1003.6
2018-03-25T11:01:35.043Z,1003.61
2018-03-25T11:02:35.066Z,1003.61
2018-03-25T11:03:35.091Z,1003.63
2018-03-25T11:04:35.114Z,1003.6
2018-03-25T11:06:35.160Z,1003.56
2018-03-25T11:07:35.183Z,1003.55
2018-03-25T11:08:35.206Z,1003.5
2018-03-25T11:09:35.228Z,1003.56
2018-03-25T11:10:35.252Z,1003.58
2018-03-25T11:11:35.275Z,1003.54
2018-03-25T11:12:35.298Z,1003.59
2018-03-25T11:13:35.321Z,1003.55
2018-03-25T11:14:35.342Z,1003.55
2018-03-25T11:15:35.365Z,1003.58
2018-03-25T11:16:35.389Z,1003.56
2018-03-25T11:17:35.412Z,1003.57
2018-03-25T11:18:35.437Z,1003.55
2018-03-25T11:19:35.457Z,1003.57
2018-03-25T11:20:35.480Z,1003.56
2018-03-25T11:21:35.503Z,1003.56
2018-03-25T11:22:35.524Z,1003.57
2018-03-25T11:23:35.546Z,1003.51
2018-03-25T11:24:35.593Z,1003.54
2018-03-25T11:25:35.592Z,1003.55
2018-03-25T11:26:35.615Z,1003.56
2018-03-25T11:27:35.638Z,1003.54
2018-03-25T11:28:35.679Z,1003.53
2018-03-25T11:29:35.682Z,1003.52
2018-03-25T11:30:35.705Z,1003.55
2018-03-25T11:31:35.727Z,1003.52
2018-03-25T11:32:35.751Z,1003.55
2018-03-25T11:33:35.772Z,1003.54
2018-03-25T11:34:35.796Z,1003.55
2018-03-25T11:35:35.817Z,1003.53
2018-03-25T11:36:35.839Z,1003.58
2018-03-25T11:38:35.884Z,1003.61
2018-03-25T11:39:35.907Z,1003.61
2018-03-25T11:40:35.928Z,1003.63
2018-03-25T11:41:35.950Z,1003.66
2018-03-25T11:42:35.974Z,1003.67
2018-03-25T11:43:35.996Z,1003.63
2018-03-25T11:44:36.018Z,1003.62
2018-03-25T11:45:36.045Z,1003.61
2018-03-25T11:46:36.062Z,1003.61
2018-03-25T11:47:36.110Z,1003.63
2018-03-25T11:48:36.106Z,1003.63
2018-03-25T11:49:36.134Z,1003.63
2018-03-25T11:50:36.150Z,1003.64
2018-03-25T11:51:36.173Z,1003.59
2018-03-25T11:52:36.195Z,1003.62
2018-03-25T11:54:36.240Z,1003.59
2018-03-25T11:55:36.261Z,1003.59
2018-03-25T11:56:36.283Z,1003.57
2018-03-25T11:57:36.312Z,1003.55
2018-03-25T11:58:36.327Z,1003.54
2018-03-25T11:59:36.349Z,1003.53
2018-03-25T12:00:36.372Z,1003.53
2018-03-25T12:01:36.395Z,1003.52
2018-03-25T12:02:36.416Z,1003.54
2018-03-25T12:03:36.439Z,1003.54
2018-03-25T12:04:36.461Z,1003.52
2018-03-25T12:05:36.488Z,1003.56
2018-03-25T12:06:36.504Z,1003.57
2018-03-25T12:07:36.526Z,1003.55
2018-03-25T12:08:36.549Z,1003.56
2018-03-25T12:10:36.594Z,1003.58
2018-03-25T12:11:36.615Z,1003.53
2018-03-25T12:12:36.637Z,1003.57
2018-03-25T12:13:36.659Z,1003.54
2018-03-25T12:14:36.681Z,1003.57
2018-03-25T12:15:36.704Z,1003.53
2018-03-25T12:16:36.725Z,1003.47
2018-03-25T12:17:36.747Z,1003.49
2018-03-25T12:18:36.770Z,1003.46
2018-03-25T12:19:36.792Z,1003.5
2018-03-25T12:20:36.813Z,1003.46
2018-03-25T12:21:36.835Z,1003.47
2018-03-25T12:22:36.859Z,1003.43
2018-03-25T12:23:36.879Z,1003.49
2018-03-25T12:24:36.902Z,1003.44
2018-03-25T12:26:36.945Z,1003.43
2018-03-25T12:27:36.967Z,1003.39
2018-03-25T12:28:36.988Z,1003.35
2018-03-25T12:29:37.010Z,1003.36
2018-03-25T12:30:37.032Z,1003.37
2018-03-25T12:31:37.053Z,1003.4
2018-03-25T12:32:37.076Z,1003.36
2018-03-25T12:33:37.098Z,1003.35
2018-03-25T12:34:37.120Z,1003.33
2018-03-25T12:35:37.141Z,1003.33
2018-03-25T12:36:37.163Z,1003.32
2018-03-25T12:37:37.186Z,1003.33
2018-03-25T12:38:37.209Z,1003.32
2018-03-25T12:39:37.232Z,1003.3
2018-03-25T12:41:37.275Z,1003.33
2018-03-25T12:42:37.296Z,1003.28
2018-03-25T12:43:37.318Z,1003.29
2018-03-25T12:44:37.340Z,1003.29
2018-03-25T12:45:37.362Z,1003.26
2018-03-25T12:46:37.383Z,1003.25
2018-03-25T12:47:37.405Z,1003.29
2018-03-25T12:48:37.428Z,1003.24